sensor_id;sensor_type;location;lat;lon;timestamp;pressure;altitude;pressure_sealevel;temperature;humidity
64675;BME280;51090;51.512;11.332;2023-05-10T00:01:14;98704.13;;;11.72;89.00
64675;BME280;51090;51.512;11.332;2023-05-10T00:03:40;98703.53;;;11.70;88.97
64675;BME280;51090;51.512;11.332;2023-05-10T00:06:06;98705.81;;;11.67;88.72
64675;BME280;51090;51.512;11.332;2023-05-10T00:08:32;98698.25;;;11.64;88.71
64675;BME280;51090;51.512;11.332;2023-05-10T00:10:58;98703.16;;;11.60;89.21
64675;BME280;51090;51.512;11.332;2023-05-10T00:13:24;98700.72;;;11.59;89.64
64675;BME280;51090;51.512;11.332;2023-05-10T00:15:50;98693.38;;;11.54;89.62
64675;BME280;51090;51.512;11.332;2023-05-10T00:18:16;98692.78;;;11.52;89.87
64675;BME280;51090;51.512;11.332;2023-05-10T00:20:42;98699.31;;;11.49;90.22
64675;BME280;51090;51.512;11.332;2023-05-10T00:23:08;98692.59;;;11.47;90.45
64675;BME280;51090;51.512;11.332;2023-05-10T00:25:34;98693.81;;;11.44;90.78
64675;BME280;51090;51.512;11.332;2023-05-10T00:28:00;98687.09;;;11.42;91.20
64675;BME280;51090;51.512;11.332;2023-05-10T00:30:27;98693.44;;;11.41;91.57
64675;BME280;51090;51.512;11.332;2023-05-10T00:32:53;98688.31;;;11.39;91.77
64675;BME280;51090;51.512;11.332;2023-05-10T00:35:19;98690.16;;;11.39;91.67
64675;BME280;51090;51.512;11.332;2023-05-10T00:37:45;98685.84;;;11.38;92.18
64675;BME280;51090;51.512;11.332;2023-05-10T00:40:12;98687.69;;;11.37;93.12
64675;BME280;51090;51.512;11.332;2023-05-10T00:42:38;98678.72;;;11.38;93.38
64675;BME280;51090;51.512;11.332;2023-05-10T00:45:04;98673.19;;;11.40;93.55
64675;BME280;51090;51.512;11.332;2023-05-10T00:47:31;98680.16;;;11.41;93.95
64675;BME280;51090;51.512;11.332;2023-05-10T00:49:57;98669.53;;;11.41;94.49
64675;BME280;51090;51.512;11.332;2023-05-10T00:52:23;98670.94;;;11.43;94.30
64675;BME280;51090;51.512;11.332;2023-05-10T00:54:53;98660.09;;;11.45;94.88
64675;BME280;51090;51.512;11.332;2023-05-10T00:57:20;98659.91;;;11.46;94.60
64675;BME280;51090;51.512;11.332;2023-05-10T00:59:46;98654.59;;;11.46;94.50
64675;BME280;51090;51.512;11.332;2023-05-10T01:02:13;98658.50;;;11.44;94.61
64675;BME280;51090;51.512;11.332;2023-05-10T01:04:39;98655.84;;;11.44;94.81
64675;BME280;51090;51.512;11.332;2023-05-10T01:07:05;98651.53;;;11.43;94.72
64675;BME280;51090;51.512;11.332;2023-05-10T01:09:31;98653.59;;;11.41;95.02
64675;BME280;51090;51.512;11.332;2023-05-10T01:11:57;98640.16;;;11.36;95.16
64675;BME280;51090;51.512;11.332;2023-05-10T01:14:24;98644.03;;;11.33;95.47
64675;BME280;51090;51.512;11.332;2023-05-10T01:16:53;98645.03;;;11.32;96.12
64675;BME280;51090;51.512;11.332;2023-05-10T01:19:23;98640.16;;;11.29;95.99
64675;BME280;51090;51.512;11.332;2023-05-10T01:22:11;98643.41;;;11.31;98.64
64675;BME280;51090;51.512;11.332;2023-05-10T01:25:19;98642.41;;;11.25;99.02
64675;BME280;51090;51.512;11.332;2023-05-10T01:28:35;98637.94;;;11.19;100.00
64675;BME280;51090;51.512;11.332;2023-05-10T01:34:27;98640.41;;;11.07;99.33
64675;BME280;51090;51.512;11.332;2023-05-10T01:37:09;98642.03;;;11.08;99.88
64675;BME280;51090;51.512;11.332;2023-05-10T01:40:03;98635.69;;;11.09;100.00
64675;BME280;51090;51.512;11.332;2023-05-10T01:42:47;98639.19;;;11.10;100.00
64675;BME280;51090;51.512;11.332;2023-05-10T01:45:28;98644.28;;;11.11;100.00
64675;BME280;51090;51.512;11.332;2023-05-10T01:48:06;98626.94;;;11.09;100.00
64675;BME280;51090;51.512;11.332;2023-05-10T01:50:35;98621.44;;;11.10;99.06
64675;BME280;51090;51.512;11.332;2023-05-10T01:53:02;98633.66;;;11.18;99.28
64675;BME280;51090;51.512;11.332;2023-05-10T01:55:38;98633.84;;;11.23;100.00
64675;BME280;51090;51.512;11.332;2023-05-10T02:01:11;98625.25;;;11.28;100.00
64675;BME280;51090;51.512;11.332;2023-05-10T02:03:39;98626.69;;;11.30;100.00
64675;BME280;51090;51.512;11.332;2023-05-10T02:06:06;98621.97;;;11.32;100.00
64675;BME280;51090;51.512;11.332;2023-05-10T02:08:36;98629.09;;;11.39;100.00
64675;BME280;51090;51.512;11.332;2023-05-10T02:11:03;98624.00;;;11.37;100.00
64675;BME280;51090;51.512;11.332;2023-05-10T02:13:31;98632.13;;;11.42;100.00
64675;BME280;51090;51.512;11.332;2023-05-10T02:15:59;98625.63;;;11.38;100.00
64675;BME280;51090;51.512;11.332;2023-05-10T02:18:27;98623.56;;;11.40;100.00
64675;BME280;51090;51.512;11.332;2023-05-10T02:20:54;98625.63;;;11.38;100.00
64675;BME280;51090;51.512;11.332;2023-05-10T02:23:20;98638.47;;;11.41;100.00
64675;BME280;51090;51.512;11.332;2023-05-10T02:25:48;98630.28;;;11.43;100.00
64675;BME280;51090;51.512;11.332;2023-05-10T02:28:15;98628.69;;;11.42;100.00
64675;BME280;51090;51.512;11.332;2023-05-10T02:30:43;98629.28;;;11.44;100.00
64675;BME280;51090;51.512;11.332;2023-05-10T02:33:09;98624.78;;;11.44;100.00
64675;BME280;51090;51.512;11.332;2023-05-10T02:35:37;98627.25;;;11.46;100.00
64675;BME280;51090;51.512;11.332;2023-05-10T02:38:04;98628.06;;;11.46;100.00
64675;BME280;51090;51.512;11.332;2023-05-10T02:40:32;98633.75;;;11.50;100.00
64675;BME280;51090;51.512;11.332;2023-05-10T02:42:59;98626.38;;;11.52;100.00
64675;BME280;51090;51.512;11.332;2023-05-10T02:45:30;98627.44;;;11.51;100.00
64675;BME280;51090;51.512;11.332;2023-05-10T02:47:56;98634.97;;;11.54;100.00
64675;BME280;51090;51.512;11.332;2023-05-10T02:50:22;98629.66;;;11.54;100.00
64675;BME280;51090;51.512;11.332;2023-05-10T02:52:51;98630.47;;;11.54;100.00
64675;BME280;51090;51.512;11.332;2023-05-10T02:55:24;98620.88;;;11.53;100.00
64675;BME280;51090;51.512;11.332;2023-05-10T02:58:01;98629.22;;;11.57;100.00
64675;BME280;51090;51.512;11.332;2023-05-10T03:00:28;98632.91;;;11.56;100.00
64675;BME280;51090;51.512;11.332;2023-05-10T03:02:54;98619.41;;;11.58;100.00
64675;BME280;51090;51.512;11.332;2023-05-10T03:05:21;98622.50;;;11.54;100.00
64675;BME280;51090;51.512;11.332;2023-05-10T03:07:46;98621.25;;;11.57;100.00
64675;BME280;51090;51.512;11.332;2023-05-10T03:10:12;98622.31;;;11.56;100.00
64675;BME280;51090;51.512;11.332;2023-05-10T03:18:29;98614.72;;;11.60;100.00
64675;BME280;51090;51.512;11.332;2023-05-10T03:21:03;98628.38;;;11.63;100.00
64675;BME280;51090;51.512;11.332;2023-05-10T03:23:47;98628.56;;;11.68;100.00
64675;BME280;51090;51.512;11.332;2023-05-10T03:26:26;98615.06;;;11.70;100.00
64675;BME280;51090;51.512;11.332;2023-05-10T03:28:53;98623.59;;;11.78;100.00
64675;BME280;51090;51.512;11.332;2023-05-10T03:31:19;98622.56;;;11.86;100.00
64675;BME280;51090;51.512;11.332;2023-05-10T03:33:50;98617.22;;;11.93;100.00
64675;BME280;51090;51.512;11.332;2023-05-10T03:36:16;98625.75;;;12.02;100.00
64675;BME280;51090;51.512;11.332;2023-05-10T03:38:42;98625.28;;;12.11;100.00
64675;BME280;51090;51.512;11.332;2023-05-10T03:41:08;98622.38;;;12.19;100.00
64675;BME280;51090;51.512;11.332;2023-05-10T03:43:34;98625.59;;;12.28;100.00
64675;BME280;51090;51.512;11.332;2023-05-10T03:46:05;98623.09;;;12.33;100.00
64675;BME280;51090;51.512;11.332;2023-05-10T03:48:32;98617.94;;;12.38;100.00
64675;BME280;51090;51.512;11.332;2023-05-10T03:50:57;98623.19;;;12.45;100.00
64675;BME280;51090;51.512;11.332;2023-05-10T03:53:23;98616.00;;;12.52;100.00
64675;BME280;51090;51.512;11.332;2023-05-10T03:55:49;98616.53;;;12.61;100.00
64675;BME280;51090;51.512;11.332;2023-05-10T03:58:15;98612.59;;;12.63;100.00
64675;BME280;51090;51.512;11.332;2023-05-10T04:00:41;98619.13;;;12.68;100.00
64675;BME280;51090;51.512;11.332;2023-05-10T04:03:10;98609.47;;;12.73;100.00
64675;BME280;51090;51.512;11.332;2023-05-10T04:05:36;98609.63;;;12.78;100.00
64675;BME280;51090;51.512;11.332;2023-05-10T04:08:02;98615.34;;;12.82;100.00
64675;BME280;51090;51.512;11.332;2023-05-10T04:10:28;98606.31;;;12.83;100.00
64675;BME280;51090;51.512;11.332;2023-05-10T04:12:54;98606.47;;;12.88;100.00
64675;BME280;51090;51.512;11.332;2023-05-10T04:15:20;98617.25;;;12.93;100.00
64675;BME280;51090;51.512;11.332;2023-05-10T04:17:46;98608.63;;;12.98;100.00
64675;BME280;51090;51.512;11.332;2023-05-10T04:20:12;98613.28;;;13.02;100.00
64675;BME280;51090;51.512;11.332;2023-05-10T04:22:38;98611.78;;;13.06;100.00
64675;BME280;51090;51.512;11.332;2023-05-10T04:25:05;98611.13;;;13.11;100.00
64675;BME280;51090;51.512;11.332;2023-05-10T04:27:31;98611.50;;;13.15;100.00
64675;BME280;51090;51.512;11.332;2023-05-10T04:29:57;98609.22;;;13.18;100.00
64675;BME280;51090;51.512;11.332;2023-05-10T04:32:23;98609.94;;;13.25;100.00
64675;BME280;51090;51.512;11.332;2023-05-10T04:34:49;98606.06;;;13.28;100.00
64675;BME280;51090;51.512;11.332;2023-05-10T04:37:16;98609.31;;;13.30;100.00
64675;BME280;51090;51.512;11.332;2023-05-10T04:39:42;98612.56;;;13.32;100.00
64675;BME280;51090;51.512;11.332;2023-05-10T04:42:08;98608.44;;;13.36;100.00
64675;BME280;51090;51.512;11.332;2023-05-10T04:44:34;98609.97;;;13.44;100.00
64675;BME280;51090;51.512;11.332;2023-05-10T04:47:00;98603.28;;;13.53;100.00
64675;BME280;51090;51.512;11.332;2023-05-10T04:49:27;98600.78;;;13.58;100.00
64675;BME280;51090;51.512;11.332;2023-05-10T04:51:53;98600.56;;;13.60;100.00
64675;BME280;51090;51.512;11.332;2023-05-10T04:54:19;98608.84;;;13.70;100.00
64675;BME280;51090;51.512;11.332;2023-05-10T04:56:45;98601.72;;;13.82;100.00
64675;BME280;51090;51.512;11.332;2023-05-10T04:59:11;98607.88;;;13.94;100.00
64675;BME280;51090;51.512;11.332;2023-05-10T05:01:36;98607.69;;;14.08;100.00
64675;BME280;51090;51.512;11.332;2023-05-10T05:04:02;98612.09;;;14.14;100.00
64675;BME280;51090;51.512;11.332;2023-05-10T05:06:28;98607.13;;;14.18;100.00
64675;BME280;51090;51.512;11.332;2023-05-10T05:08:53;98614.91;;;14.19;100.00
64675;BME280;51090;51.512;11.332;2023-05-10T05:11:19;98615.25;;;14.23;100.00
64675;BME280;51090;51.512;11.332;2023-05-10T05:13:46;98619.31;;;14.25;100.00
64675;BME280;51090;51.512;11.332;2023-05-10T05:16:12;98619.91;;;14.27;100.00
64675;BME280;51090;51.512;11.332;2023-05-10T05:18:37;98628.28;;;14.31;100.00
64675;BME280;51090;51.512;11.332;2023-05-10T05:21:03;98626.16;;;14.33;100.00
64675;BME280;51090;51.512;11.332;2023-05-10T05:23:38;98624.91;;;14.35;100.00
64675;BME280;51090;51.512;11.332;2023-05-10T05:26:04;98633.03;;;14.41;100.00
64675;BME280;51090;51.512;11.332;2023-05-10T05:28:29;98625.16;;;14.46;100.00
64675;BME280;51090;51.512;11.332;2023-05-10T05:30:58;98630.03;;;14.49;100.00
64675;BME280;51090;51.512;11.332;2023-05-10T05:33:23;98626.22;;;14.56;100.00
64675;BME280;51090;51.512;11.332;2023-05-10T05:35:49;98642.75;;;14.65;100.00
64675;BME280;51090;51.512;11.332;2023-05-10T05:38:16;98631.13;;;14.71;100.00
64675;BME280;51090;51.512;11.332;2023-05-10T05:40:42;98640.31;;;14.75;100.00
64675;BME280;51090;51.512;11.332;2023-05-10T05:43:08;98639.84;;;14.78;100.00
64675;BME280;51090;51.512;11.332;2023-05-10T05:45:34;98640.06;;;14.89;100.00
64675;BME280;51090;51.512;11.332;2023-05-10T05:48:00;98636.56;;;15.00;100.00
64675;BME280;51090;51.512;11.332;2023-05-10T05:50:25;98651.53;;;15.13;100.00
64675;BME280;51090;51.512;11.332;2023-05-10T05:52:51;98651.31;;;15.26;100.00
64675;BME280;51090;51.512;11.332;2023-05-10T05:55:17;98652.34;;;15.37;99.02
64675;BME280;51090;51.512;11.332;2023-05-10T05:57:43;98649.53;;;15.55;98.79
64675;BME280;51090;51.512;11.332;2023-05-10T06:00:09;98649.63;;;15.72;96.88
64675;BME280;51090;51.512;11.332;2023-05-10T06:02:34;98653.72;;;15.92;95.69
64675;BME280;51090;51.512;11.332;2023-05-10T06:05:00;98655.72;;;16.13;94.01
64675;BME280;51090;51.512;11.332;2023-05-10T06:07:26;98662.28;;;16.34;92.88
64675;BME280;51090;51.512;11.332;2023-05-10T06:09:52;98651.41;;;16.58;91.45
64675;BME280;51090;51.512;11.332;2023-05-10T06:12:17;98657.22;;;16.83;89.38
64675;BME280;51090;51.512;11.332;2023-05-10T06:14:43;98661.22;;;17.03;87.63
64675;BME280;51090;51.512;11.332;2023-05-10T06:17:09;98668.75;;;17.23;86.31
64675;BME280;51090;51.512;11.332;2023-05-10T06:19:35;98660.75;;;17.45;83.92
64675;BME280;51090;51.512;11.332;2023-05-10T06:22:01;98659.63;;;17.62;82.29
64675;BME280;51090;51.512;11.332;2023-05-10T06:24:26;98668.25;;;17.87;81.29
64675;BME280;51090;51.512;11.332;2023-05-10T06:26:52;98665.28;;;18.10;79.75
64675;BME280;51090;51.512;11.332;2023-05-10T06:29:18;98672.22;;;18.33;78.36
64675;BME280;51090;51.512;11.332;2023-05-10T06:31:44;98675.31;;;18.52;75.76
64675;BME280;51090;51.512;11.332;2023-05-10T06:34:09;98666.59;;;18.67;72.50
64675;BME280;51090;51.512;11.332;2023-05-10T06:36:37;98673.97;;;18.77;71.12
64675;BME280;51090;51.512;11.332;2023-05-10T06:39:02;98671.59;;;18.85;70.64
64675;BME280;51090;51.512;11.332;2023-05-10T06:41:28;98676.53;;;18.93;69.99
64675;BME280;51090;51.512;11.332;2023-05-10T06:43:54;98681.34;;;18.91;69.07
64675;BME280;51090;51.512;11.332;2023-05-10T06:46:20;98681.03;;;18.88;69.60
64675;BME280;51090;51.512;11.332;2023-05-10T06:48:45;98689.59;;;18.85;68.80
64675;BME280;51090;51.512;11.332;2023-05-10T06:51:11;98689.31;;;18.81;69.64
64675;BME280;51090;51.512;11.332;2023-05-10T06:53:37;98682.09;;;18.87;69.31
64675;BME280;51090;51.512;11.332;2023-05-10T06:56:02;98681.91;;;18.93;69.39
64675;BME280;51090;51.512;11.332;2023-05-10T06:58:28;98683.53;;;19.00;69.34
64675;BME280;51090;51.512;11.332;2023-05-10T07:00:54;98685.50;;;19.09;68.58
64675;BME280;51090;51.512;11.332;2023-05-10T07:03:20;98679.09;;;19.21;68.60
64675;BME280;51090;51.512;11.332;2023-05-10T07:05:45;98668.34;;;19.21;67.43
64675;BME280;51090;51.512;11.332;2023-05-10T07:08:11;98678.09;;;19.32;66.33
64675;BME280;51090;51.512;11.332;2023-05-10T07:10:37;98689.13;;;19.35;66.88
64675;BME280;51090;51.512;11.332;2023-05-10T07:13:02;98689.97;;;19.41;67.37
64675;BME280;51090;51.512;11.332;2023-05-10T07:15:28;98692.13;;;19.44;66.41
64675;BME280;51090;51.512;11.332;2023-05-10T07:17:54;98691.63;;;19.47;66.56
64675;BME280;51090;51.512;11.332;2023-05-10T07:20:20;98696.50;;;19.50;66.31
64675;BME280;51090;51.512;11.332;2023-05-10T07:22:46;98695.38;;;19.46;65.38
64675;BME280;51090;51.512;11.332;2023-05-10T07:25:11;98690.25;;;19.40;65.28
64675;BME280;51090;51.512;11.332;2023-05-10T07:27:37;98698.59;;;19.43;66.26
64675;BME280;51090;51.512;11.332;2023-05-10T07:30:03;98700.16;;;19.39;66.38
64675;BME280;51090;51.512;11.332;2023-05-10T07:32:29;98707.97;;;19.35;66.36
64675;BME280;51090;51.512;11.332;2023-05-10T07:34:54;98708.41;;;19.22;65.69
64675;BME280;51090;51.512;11.332;2023-05-10T07:37:20;98703.16;;;19.00;66.21
64675;BME280;51090;51.512;11.332;2023-05-10T07:39:46;98717.59;;;18.89;67.19
64675;BME280;51090;51.512;11.332;2023-05-10T07:42:11;98712.72;;;18.86;68.08
64675;BME280;51090;51.512;11.332;2023-05-10T07:44:37;98714.84;;;18.84;68.13
64675;BME280;51090;51.512;11.332;2023-05-10T07:47:03;98718.53;;;18.78;68.54
64675;BME280;51090;51.512;11.332;2023-05-10T07:49:28;98721.00;;;18.79;69.40
64675;BME280;51090;51.512;11.332;2023-05-10T07:51:54;98723.25;;;18.92;70.86
64675;BME280;51090;51.512;11.332;2023-05-10T07:54:20;98721.19;;;19.05;71.50
64675;BME280;51090;51.512;11.332;2023-05-10T07:56:45;98724.03;;;19.25;71.28
64675;BME280;51090;51.512;11.332;2023-05-10T07:59:16;98728.97;;;19.44;71.60
64675;BME280;51090;51.512;11.332;2023-05-10T08:01:43;98730.94;;;19.58;71.54
64675;BME280;51090;51.512;11.332;2023-05-10T08:04:09;98722.41;;;19.67;71.74
64675;BME280;51090;51.512;11.332;2023-05-10T08:06:34;98723.22;;;19.67;72.27
64675;BME280;51090;51.512;11.332;2023-05-10T08:09:00;98725.41;;;19.75;73.38
64675;BME280;51090;51.512;11.332;2023-05-10T08:11:26;98730.53;;;19.77;74.01
64675;BME280;51090;51.512;11.332;2023-05-10T08:13:53;98727.03;;;19.76;74.11
64675;BME280;51090;51.512;11.332;2023-05-10T08:16:19;98738.31;;;19.73;75.15
64675;BME280;51090;51.512;11.332;2023-05-10T08:18:46;98740.69;;;19.70;75.76
64675;BME280;51090;51.512;11.332;2023-05-10T08:21:13;98745.44;;;19.52;76.36
64675;BME280;51090;51.512;11.332;2023-05-10T08:23:39;98747.78;;;19.44;77.67
64675;BME280;51090;51.512;11.332;2023-05-10T08:26:05;98748.59;;;19.44;79.10
64675;BME280;51090;51.512;11.332;2023-05-10T08:28:31;98751.91;;;19.56;79.67
64675;BME280;51090;51.512;11.332;2023-05-10T08:30:56;98754.91;;;19.60;80.17
64675;BME280;51090;51.512;11.332;2023-05-10T08:33:22;98737.63;;;19.51;80.61
64675;BME280;51090;51.512;11.332;2023-05-10T08:35:48;98755.13;;;19.53;81.60
64675;BME280;51090;51.512;11.332;2023-05-10T08:38:14;98760.22;;;19.50;82.45
64675;BME280;51090;51.512;11.332;2023-05-10T08:40:42;98766.16;;;19.57;83.67
64675;BME280;51090;51.512;11.332;2023-05-10T08:43:11;98771.09;;;19.70;83.20
64675;BME280;51090;51.512;11.332;2023-05-10T08:45:39;98778.16;;;19.82;83.21
64675;BME280;51090;51.512;11.332;2023-05-10T08:48:07;98777.38;;;19.81;83.56
64675;BME280;51090;51.512;11.332;2023-05-10T08:50:36;98781.69;;;19.87;84.59
64675;BME280;51090;51.512;11.332;2023-05-10T08:53:11;98781.22;;;20.00;85.78
64675;BME280;51090;51.512;11.332;2023-05-10T08:55:39;98776.16;;;20.09;84.43
64675;BME280;51090;51.512;11.332;2023-05-10T08:58:06;98780.44;;;20.10;83.82
64675;BME280;51090;51.512;11.332;2023-05-10T09:00:32;98776.41;;;20.13;83.54
64675;BME280;51090;51.512;11.332;2023-05-10T09:02:59;98784.28;;;20.25;83.91
64675;BME280;51090;51.512;11.332;2023-05-10T09:05:25;98794.22;;;20.24;82.60
64675;BME280;51090;51.512;11.332;2023-05-10T09:07:51;98785.88;;;20.26;82.91
64675;BME280;51090;51.512;11.332;2023-05-10T09:10:17;98791.53;;;20.29;82.10
64675;BME280;51090;51.512;11.332;2023-05-10T09:12:44;98793.72;;;20.32;81.21
64675;BME280;51090;51.512;11.332;2023-05-10T09:15:11;98791.03;;;20.27;82.15
64675;BME280;51090;51.512;11.332;2023-05-10T09:17:38;98807.19;;;20.27;83.22
64675;BME280;51090;51.512;11.332;2023-05-10T09:20:06;98798.78;;;20.18;82.54
64675;BME280;51090;51.512;11.332;2023-05-10T09:22:33;98803.38;;;20.23;82.89
64675;BME280;51090;51.512;11.332;2023-05-10T09:25:13;98802.88;;;20.36;83.98
64675;BME280;51090;51.512;11.332;2023-05-10T09:27:40;98810.47;;;20.50;83.91
64675;BME280;51090;51.512;11.332;2023-05-10T09:30:09;98816.16;;;20.53;82.81
64675;BME280;51090;51.512;11.332;2023-05-10T09:32:46;98820.78;;;20.63;82.85
64675;BME280;51090;51.512;11.332;2023-05-10T09:35:17;98825.63;;;20.66;82.54
64675;BME280;51090;51.512;11.332;2023-05-10T09:37:46;98802.38;;;20.44;82.98
64675;BME280;51090;51.512;11.332;2023-05-10T09:40:21;98830.41;;;20.49;84.59
64675;BME280;51090;51.512;11.332;2023-05-10T09:43:04;98831.03;;;20.66;85.94
64675;BME280;51090;51.512;11.332;2023-05-10T09:45:33;98834.28;;;20.78;84.62
64675;BME280;51090;51.512;11.332;2023-05-10T09:48:00;98832.97;;;20.86;84.77
64675;BME280;51090;51.512;11.332;2023-05-10T09:50:28;98834.56;;;20.92;84.19
64675;BME280;51090;51.512;11.332;2023-05-10T09:53:00;98845.34;;;20.82;84.97
64675;BME280;51090;51.512;11.332;2023-05-10T09:55:42;98837.78;;;20.74;87.21
64675;BME280;51090;51.512;11.332;2023-05-10T09:58:10;98843.16;;;20.74;86.27
64675;BME280;51090;51.512;11.332;2023-05-10T10:00:41;98842.63;;;20.77;85.96
64675;BME280;51090;51.512;11.332;2023-05-10T10:03:16;98844.53;;;20.76;86.91
64675;BME280;51090;51.512;11.332;2023-05-10T10:05:44;98850.47;;;20.78;85.63
64675;BME280;51090;51.512;11.332;2023-05-10T10:08:10;98847.25;;;20.86;85.99
64675;BME280;51090;51.512;11.332;2023-05-10T10:10:37;98856.41;;;21.01;86.20
64675;BME280;51090;51.512;11.332;2023-05-10T10:13:04;98853.47;;;21.13;85.98
64675;BME280;51090;51.512;11.332;2023-05-10T10:15:30;98854.84;;;21.25;85.66
64675;BME280;51090;51.512;11.332;2023-05-10T10:17:57;98845.09;;;21.29;84.94
64675;BME280;51090;51.512;11.332;2023-05-10T10:20:24;98857.00;;;21.44;83.01
64675;BME280;51090;51.512;11.332;2023-05-10T10:22:50;98859.72;;;21.49;83.23
64675;BME280;51090;51.512;11.332;2023-05-10T10:25:18;98845.69;;;21.52;81.52
64675;BME280;51090;51.512;11.332;2023-05-10T10:30:40;98861.84;;;21.67;81.73
64675;BME280;51090;51.512;11.332;2023-05-10T10:36:23;98869.66;;;21.89;81.49
64675;BME280;51090;51.512;11.332;2023-05-10T10:41:30;98859.97;;;21.68;79.38
64675;BME280;51090;51.512;11.332;2023-05-10T10:49:50;98865.41;;;20.49;89.20
64675;BME280;51090;51.512;11.332;2023-05-10T10:52:45;98868.78;;;20.23;92.20
64675;BME280;51090;51.512;11.332;2023-05-10T10:55:16;98862.41;;;19.87;92.90
64675;BME280;51090;51.512;11.332;2023-05-10T10:57:49;98868.31;;;19.52;97.60
64675;BME280;51090;51.512;11.332;2023-05-10T11:00:36;98860.72;;;19.11;100.00
64675;BME280;51090;51.512;11.332;2023-05-10T11:03:10;98876.59;;;18.86;100.00
64675;BME280;51090;51.512;11.332;2023-05-10T11:05:58;98877.59;;;18.58;100.00
64675;BME280;51090;51.512;11.332;2023-05-10T11:08:33;98872.56;;;18.44;100.00
64675;BME280;51090;51.512;11.332;2023-05-10T11:13:46;98874.91;;;18.58;100.00
64675;BME280;51090;51.512;11.332;2023-05-10T11:16:24;98872.13;;;18.75;100.00
64675;BME280;51090;51.512;11.332;2023-05-10T11:19:07;98874.88;;;19.02;100.00
64675;BME280;51090;51.512;11.332;2023-05-10T11:21:51;98880.25;;;19.34;100.00
64675;BME280;51090;51.512;11.332;2023-05-10T11:24:36;98878.91;;;19.64;100.00
64675;BME280;51090;51.512;11.332;2023-05-10T11:27:02;98874.56;;;19.95;100.00
64675;BME280;51090;51.512;11.332;2023-05-10T11:29:28;98878.75;;;20.23;100.00
64675;BME280;51090;51.512;11.332;2023-05-10T11:31:58;98876.19;;;20.49;97.91
64675;BME280;51090;51.512;11.332;2023-05-10T11:34:28;98880.59;;;20.70;96.29
64675;BME280;51090;51.512;11.332;2023-05-10T11:37:00;98882.28;;;20.92;93.90
64675;BME280;51090;51.512;11.332;2023-05-10T11:39:31;98894.44;;;21.09;91.35
64675;BME280;51090;51.512;11.332;2023-05-10T11:41:57;98888.53;;;21.33;89.06
64675;BME280;51090;51.512;11.332;2023-05-10T11:44:29;98891.00;;;21.55;87.78
64675;BME280;51090;51.512;11.332;2023-05-10T11:47:01;98887.78;;;21.73;84.89
64675;BME280;51090;51.512;11.332;2023-05-10T11:49:27;98897.44;;;22.00;84.00
64675;BME280;51090;51.512;11.332;2023-05-10T11:52:03;98893.34;;;22.18;81.95
64675;BME280;51090;51.512;11.332;2023-05-10T11:54:28;98902.22;;;22.44;83.54
64675;BME280;51090;51.512;11.332;2023-05-10T11:56:54;98901.56;;;22.68;81.45
64675;BME280;51090;51.512;11.332;2023-05-10T11:59:20;98901.44;;;22.93;79.78
64675;BME280;51090;51.512;11.332;2023-05-10T12:01:45;98893.31;;;23.03;78.46
64675;BME280;51090;51.512;11.332;2023-05-10T12:04:11;98896.63;;;23.30;77.35
64675;BME280;51090;51.512;11.332;2023-05-10T12:06:40;98903.00;;;23.49;76.05
64675;BME280;51090;51.512;11.332;2023-05-10T12:09:07;98905.53;;;23.69;75.43
64675;BME280;51090;51.512;11.332;2023-05-10T12:11:38;98905.72;;;23.83;72.87
64675;BME280;51090;51.512;11.332;2023-05-10T12:14:05;98907.19;;;24.00;73.06
64675;BME280;51090;51.512;11.332;2023-05-10T12:16:31;98907.03;;;24.15;71.30
64675;BME280;51090;51.512;11.332;2023-05-10T12:18:59;98904.56;;;24.19;64.87
64675;BME280;51090;51.512;11.332;2023-05-10T12:21:28;98893.88;;;24.03;65.19
64675;BME280;51090;51.512;11.332;2023-05-10T12:24:01;98902.00;;;24.03;64.79
64675;BME280;51090;51.512;11.332;2023-05-10T12:26:28;98907.59;;;24.12;66.73
64675;BME280;51090;51.512;11.332;2023-05-10T12:29:00;98904.44;;;24.29;65.54
64675;BME280;51090;51.512;11.332;2023-05-10T12:31:55;98904.66;;;24.32;62.11
64675;BME280;51090;51.512;11.332;2023-05-10T12:34:32;98902.66;;;24.43;62.00
64675;BME280;51090;51.512;11.332;2023-05-10T12:36:59;98900.34;;;24.55;63.49
64675;BME280;51090;51.512;11.332;2023-05-10T12:39:25;98905.91;;;24.69;63.96
64675;BME280;51090;51.512;11.332;2023-05-10T12:41:52;98909.00;;;24.82;63.42
64675;BME280;51090;51.512;11.332;2023-05-10T12:44:18;98909.13;;;24.90;61.27
64675;BME280;51090;51.512;11.332;2023-05-10T12:46:44;98906.28;;;25.01;61.68
64675;BME280;51090;51.512;11.332;2023-05-10T12:49:09;98909.38;;;25.13;60.62
64675;BME280;51090;51.512;11.332;2023-05-10T12:51:35;98915.03;;;25.16;59.16
64675;BME280;51090;51.512;11.332;2023-05-10T12:54:02;98909.78;;;25.01;57.44
64675;BME280;51090;51.512;11.332;2023-05-10T12:56:28;98914.03;;;24.88;57.77
64675;BME280;51090;51.512;11.332;2023-05-10T12:58:54;98910.22;;;24.70;58.30
64675;BME280;51090;51.512;11.332;2023-05-10T13:01:19;98925.03;;;24.78;59.34
64675;BME280;51090;51.512;11.332;2023-05-10T13:03:45;98920.84;;;24.86;60.78
64675;BME280;51090;51.512;11.332;2023-05-10T13:06:11;98920.44;;;24.97;60.56
64675;BME280;51090;51.512;11.332;2023-05-10T13:08:38;98921.03;;;25.13;60.19
64675;BME280;51090;51.512;11.332;2023-05-10T13:11:05;98926.47;;;25.32;58.91
64675;BME280;51090;51.512;11.332;2023-05-10T13:13:31;98921.13;;;25.46;57.82
64675;BME280;51090;51.512;11.332;2023-05-10T13:15:56;98923.34;;;25.58;57.09
64675;BME280;51090;51.512;11.332;2023-05-10T13:18:22;98923.50;;;25.67;56.04
64675;BME280;51090;51.512;11.332;2023-05-10T13:20:48;98923.19;;;25.68;55.69